createdAt,value
2022-08-30T00:02:50.626Z,100024.03
2022-08-30T00:05:52.314Z,100029.94
2022-08-30T00:08:58.272Z,100032.09
2022-08-30T00:11:59.937Z,100028.34
2022-08-30T00:15:01.822Z,100031.56
2022-08-30T00:18:03.407Z,100035.31
2022-08-30T00:21:05.181Z,100028.63
2022-08-30T00:24:06.769Z,100033.72
2022-08-30T00:27:08.485Z,100028.38
2022-08-30T00:30:10.301Z,100031.56
2022-08-30T00:33:11.916Z,100040.13
2022-08-30T00:36:13.571Z,100031.28
2022-08-30T00:39:15.166Z,100039.63
2022-08-30T00:42:17.544Z,100044.44
2022-08-30T00:45:21.490Z,100046.03
2022-08-30T00:48:23.472Z,100042.03
2022-08-30T00:51:26.273Z,100046.56
2022-08-30T00:54:28.335Z,100056.47
2022-08-30T00:57:30.709Z,100049.78
2022-08-30T01:00:32.386Z,100051.41
2022-08-30T01:03:34.121Z,100063.16
2022-08-30T01:06:36.086Z,100056.75
2022-08-30T01:09:37.665Z,100066.13
2022-08-30T01:12:39.251Z,100069.88
2022-08-30T01:15:41.781Z,100071.19
2022-08-30T01:18:43.608Z,100075.22
2022-08-30T01:21:47.050Z,100069.59
2022-08-30T01:24:48.598Z,100070.66
2022-08-30T01:28:10.405Z,100073.88
2022-08-30T01:31:13.286Z,100074.16
2022-08-30T01:34:14.871Z,100071.75
2022-08-30T01:37:18.019Z,100061.31
2022-08-30T01:40:19.995Z,100069.06
2022-08-30T01:43:21.578Z,100067.47
2022-08-30T01:46:24.485Z,100067.75
2022-08-30T01:49:27.898Z,100072.53
2022-08-30T01:52:30.166Z,100068.28
2022-08-30T01:55:32.439Z,100063.16
2022-08-30T01:58:34.805Z,100058.34
2022-08-30T02:01:37.246Z,100064.78
2022-08-30T02:04:38.907Z,100067.47
2022-08-30T02:07:40.496Z,100069.06
2022-08-30T02:10:42.086Z,100065.31
2022-08-30T02:13:44.249Z,100060.50
2022-08-30T02:16:46.416Z,100066.38
2022-08-30T02:19:48.022Z,100060.50
2022-08-30T02:22:49.671Z,100062.66
2022-08-30T02:25:51.235Z,100062.91
2022-08-30T02:28:53.129Z,100065.56
2022-08-30T02:31:54.719Z,100069.31
2022-08-30T02:34:56.310Z,100072.56
2022-08-30T02:37:57.987Z,100064.78
2022-08-30T02:40:59.593Z,100061.00
2022-08-30T02:44:01.290Z,100068.53
2022-08-30T02:47:03.021Z,100066.94
2022-08-30T02:50:05.564Z,100071.72
2022-08-30T02:53:07.247Z,100064.22
2022-08-30T02:56:11.734Z,100057.53
2022-08-30T02:59:13.660Z,100056.91
2022-08-30T03:02:15.385Z,100049.88
2022-08-30T03:05:17.294Z,100051.13
2022-08-30T03:08:18.905Z,100062.78
2022-08-30T03:11:22.402Z,100060.28
2022-08-30T03:14:25.509Z,100057.25
2022-08-30T03:17:27.108Z,100056.84
2022-08-30T03:20:28.751Z,100047.38
2022-08-30T03:23:30.301Z,100056.88
2022-08-30T03:26:31.877Z,100061.22
2022-08-30T03:29:33.681Z,100059.41
2022-08-30T03:32:35.386Z,100055.81
2022-08-30T03:35:36.958Z,100057.81
2022-08-30T03:38:38.870Z,100052.88
2022-08-30T03:41:40.494Z,100062.31
2022-08-30T03:44:42.904Z,100064.34
2022-08-30T03:47:44.646Z,100054.28
2022-08-30T03:50:46.281Z,100053.75
2022-08-30T03:53:47.863Z,100048.69
2022-08-30T03:56:49.445Z,100048.41
2022-08-30T03:59:51.182Z,100053.75
2022-08-30T04:02:52.752Z,100050.06
2022-08-30T04:05:55.365Z,100056.41
2022-08-30T04:08:56.937Z,100054.50
2022-08-30T04:12:00.233Z,100052.56
2022-08-30T04:15:02.082Z,100057.91
2022-08-30T04:18:03.689Z,100055.19
2022-08-30T04:21:05.559Z,100067.69
2022-08-30T04:24:07.342Z,100061.47
2022-08-30T04:27:09.151Z,100063.75
2022-08-30T04:30:12.150Z,100064.28
2022-08-30T04:33:13.883Z,100066.69
2022-08-30T04:36:15.465Z,100064.28
2022-08-30T04:39:19.894Z,100071.63
2022-08-30T04:42:21.576Z,100077.19
2022-08-30T04:45:23.182Z,100075.56
2022-08-30T04:48:24.866Z,100076.09
2022-08-30T04:51:26.442Z,100076.56
2022-08-30T04:54:28.573Z,100081.31
2022-08-30T04:57:30.192Z,100082.22
2022-08-30T05:00:32.007Z,100079.78
2022-08-30T05:03:33.599Z,100085.28
2022-08-30T05:06:35.285Z,100083.19
2022-08-30T05:09:37.706Z,100082.13
2022-08-30T05:12:39.736Z,100089.31
2022-08-30T05:15:41.386Z,100090.94
2022-08-30T05:18:43.511Z,100091.56
2022-08-30T05:21:45.541Z,100098.38
2022-08-30T05:24:47.125Z,100096.44
2022-08-30T05:27:48.931Z,100094.34
2022-08-30T05:30:50.509Z,100098.53
2022-08-30T05:33:52.825Z,100102.00
2022-08-30T05:36:54.482Z,100102.94
2022-08-30T05:39:56.719Z,100106.19
2022-08-30T05:42:58.372Z,100106.66
2022-08-30T05:46:01.032Z,100099.19
2022-08-30T05:49:03.386Z,100106.25
2022-08-30T05:52:05.363Z,100105.19
2022-08-30T05:55:07.783Z,100105.50
2022-08-30T05:58:09.434Z,100098.72
2022-08-30T06:01:21.281Z,100097.22
2022-08-30T06:04:22.893Z,100100.41
2022-08-30T06:07:24.454Z,100105.56
2022-08-30T06:10:26.052Z,100110.22
2022-08-30T06:13:27.635Z,100107.09
2022-08-30T06:16:29.317Z,100105.06
2022-08-30T06:19:30.952Z,100100.34
2022-08-30T06:22:32.549Z,100096.16
2022-08-30T06:25:41.356Z,100099.38
2022-08-30T06:28:43.846Z,100096.47
2022-08-30T06:31:45.646Z,100102.66
2022-08-30T06:34:48.374Z,100101.09
2022-08-30T06:37:49.945Z,100099.78
2022-08-30T06:40:51.556Z,100091.25
2022-08-30T06:43:53.326Z,100090.25
2022-08-30T06:46:54.990Z,100089.53
2022-08-30T06:49:57.223Z,100088.50
2022-08-30T06:53:04.470Z,100093.97
2022-08-30T06:56:07.745Z,100092.72
2022-08-30T06:59:09.365Z,100090.69
2022-08-30T07:02:11.199Z,100100.38
2022-08-30T07:05:17.994Z,100090.03
2022-08-30T07:08:20.637Z,100102.94
2022-08-30T07:11:28.419Z,100108.06
2022-08-30T07:14:30.282Z,100110.53
2022-08-30T07:17:50.606Z,100112.50
2022-08-30T07:20:52.234Z,100115.75
2022-08-30T07:23:54.506Z,100116.03
2022-08-30T07:26:56.077Z,100116.09
2022-08-30T07:29:58.876Z,100118.53
2022-08-30T07:33:00.691Z,100125.81
2022-08-30T07:36:02.395Z,100125.56
2022-08-30T07:39:04.586Z,100118.09
2022-08-30T07:42:06.613Z,100122.09
2022-08-30T07:45:08.902Z,100122.09
2022-08-30T07:48:12.651Z,100126.13
2022-08-30T07:51:19.534Z,100116.72
2022-08-30T07:54:21.154Z,100108.66
2022-08-30T07:57:22.893Z,100116.66
2022-08-30T08:00:25.074Z,100113.97
2022-08-30T08:03:26.846Z,100119.88
2022-08-30T08:06:29.779Z,100118.78
2022-08-30T08:09:37.317Z,100124.09
2022-08-30T08:12:39.196Z,100127.19
2022-08-30T08:15:40.828Z,100131.41
2022-08-30T08:18:42.457Z,100131.13
2022-08-30T08:21:44.006Z,100140.00
2022-08-30T08:24:46.069Z,100142.56
2022-08-30T08:27:48.980Z,100150.69
2022-08-30T08:30:50.698Z,100148.25
2022-08-30T08:33:52.403Z,100148.81
2022-08-30T08:36:54.129Z,100150.88
2022-08-30T08:39:55.813Z,100150.81
2022-08-30T08:43:05.654Z,100141.44
2022-08-30T08:46:07.220Z,100136.38
2022-08-30T08:49:11.147Z,100145.38
2022-08-30T08:52:37.266Z,100133.91
2022-08-30T08:55:40.886Z,100141.47
2022-08-30T08:58:44.238Z,100141.88
2022-08-30T09:01:46.076Z,100140.41
2022-08-30T09:04:47.666Z,100147.44
2022-08-30T09:07:52.223Z,100144.31
2022-08-30T09:10:56.953Z,100147.25
2022-08-30T09:13:58.553Z,100145.03
2022-08-30T09:20:33.749Z,100146.66
2022-08-30T09:23:35.328Z,100147.50
2022-08-30T09:26:38.100Z,100146.53
2022-08-30T09:29:43.621Z,100148.72
2022-08-30T09:32:53.226Z,100150.84
2022-08-30T09:35:55.876Z,100148.94
2022-08-30T09:39:01.691Z,100152.84
2022-08-30T09:42:14.109Z,100142.88
2022-08-30T09:45:20.346Z,100141.09
2022-08-30T09:48:37.704Z,100134.91
2022-08-30T09:51:40.871Z,100146.75
2022-08-30T09:55:04.385Z,100149.34
2022-08-30T09:58:11.166Z,100150.44
2022-08-30T10:01:15.610Z,100142.47
2022-08-30T10:04:32.358Z,100137.00
2022-08-30T10:07:39.945Z,100128.50
2022-08-30T10:10:50.487Z,100133.28
2022-08-30T10:13:56.401Z,100142.66
2022-08-30T10:17:11.312Z,100144.25
2022-08-30T10:20:30.525Z,100150.44
2022-08-30T10:23:33.089Z,100139.69
2022-08-30T10:26:45.625Z,100144.44
2022-08-30T10:29:49.706Z,100128.81
2022-08-30T10:32:53.536Z,100137.69
2022-08-30T10:35:57.050Z,100136.41
2022-08-30T10:38:58.599Z,100147.06
2022-08-30T10:42:02.464Z,100142.91
2022-08-30T10:45:06.021Z,100154.88
2022-08-30T10:48:16.662Z,100152.56
2022-08-30T10:51:29.222Z,100149.28
2022-08-30T10:54:35.144Z,100150.78
2022-08-30T10:57:37.107Z,100134.97
2022-08-30T11:00:50.681Z,100133.25
2022-08-30T11:03:55.537Z,100122.88
2022-08-30T11:07:20.652Z,100128.34
2022-08-30T11:10:26.040Z,100131.09
2022-08-30T11:13:29.762Z,100130.38
2022-08-30T11:16:38.075Z,100131.28
2022-08-30T11:19:39.935Z,100131.09
2022-08-30T11:22:42.423Z,100125.84
2022-08-30T11:26:03.092Z,100123.22
2022-08-30T11:29:04.993Z,100132.25
2022-08-30T11:32:15.893Z,100136.41
2022-08-30T11:35:36.847Z,100132.00
2022-08-30T11:38:38.404Z,100135.84
2022-08-30T11:41:42.589Z,100121.44
2022-08-30T11:44:44.807Z,100124.22
2022-08-30T11:47:48.479Z,100119.66
2022-08-30T11:50:52.622Z,100127.84
2022-08-30T11:54:06.454Z,100120.53
2022-08-30T11:57:20.015Z,100116.78
2022-08-30T12:00:30.647Z,100123.66
2022-08-30T12:03:35.929Z,100128.81
2022-08-30T12:06:40.970Z,100133.63
2022-08-30T12:09:45.439Z,100137.19
2022-08-30T12:12:47.784Z,100139.69
2022-08-30T12:15:54.990Z,100133.16
2022-08-30T12:19:00.244Z,100134.84
2022-08-30T12:22:06.078Z,100135.66
2022-08-30T12:25:16.010Z,100136.91
2022-08-30T12:28:22.536Z,100136.91
2022-08-30T12:31:25.907Z,100124.56
2022-08-30T12:34:29.033Z,100126.69
2022-08-30T12:37:30.573Z,100128.44
2022-08-30T12:40:34.526Z,100125.53
2022-08-30T12:43:40.163Z,100132.59
2022-08-30T12:46:43.748Z,100131.47
2022-08-30T12:49:46.383Z,100132.72
2022-08-30T12:52:59.105Z,100128.25
2022-08-30T12:56:07.006Z,100136.56
2022-08-30T12:59:09.928Z,100131.84
2022-08-30T13:02:20.353Z,100137.00
2022-08-30T13:05:42.970Z,100135.78
2022-08-30T13:08:46.773Z,100148.03
2022-08-30T13:11:48.663Z,100145.31
2022-08-30T13:14:50.462Z,100148.69
2022-08-30T13:18:12.472Z,100146.16
2022-08-30T13:21:24.977Z,100135.75
2022-08-30T13:24:27.059Z,100144.53
2022-08-30T13:27:29.394Z,100139.97
2022-08-30T13:30:31.563Z,100142.00
2022-08-30T13:33:33.173Z,100138.84
2022-08-30T13:36:36.073Z,100137.50
2022-08-30T13:39:38.495Z,100135.41
2022-08-30T13:42:43.008Z,100144.06
2022-08-30T13:45:44.630Z,100142.63
2022-08-30T13:48:46.362Z,100143.59
2022-08-30T13:52:09.487Z,100140.72
2022-08-30T13:55:10.114Z,100139.69
2022-08-30T13:58:13.302Z,100146.00
2022-08-30T14:01:15.662Z,100145.63
2022-08-30T14:04:18.181Z,100139.94
2022-08-30T14:07:20.921Z,100139.94
2022-08-30T14:10:32.586Z,100135.78
2022-08-30T14:13:36.916Z,100141.47
2022-08-30T14:16:42.299Z,100138.28
2022-08-30T14:19:43.937Z,100135.75
2022-08-30T14:22:45.476Z,100142.28
2022-08-30T14:25:48.984Z,100137.97
2022-08-30T14:28:52.357Z,100136.28
2022-08-30T14:31:54.053Z,100133.63
2022-08-30T14:34:55.685Z,100136.09
2022-08-30T14:37:57.361Z,100127.25
2022-08-30T14:40:58.930Z,100132.09
2022-08-30T14:44:02.563Z,100143.47
2022-08-30T14:47:04.949Z,100128.38
2022-08-30T14:50:06.845Z,100131.63
2022-08-30T14:53:08.627Z,100123.34
2022-08-30T14:56:11.214Z,100135.03
2022-08-30T14:59:13.390Z,100132.06
2022-08-30T15:02:15.465Z,100128.22
2022-08-30T15:05:17.495Z,100132.91
2022-08-30T15:08:19.296Z,100132.09
2022-08-30T15:11:22.088Z,100135.91
2022-08-30T15:14:24.286Z,100144.06
2022-08-30T15:17:26.022Z,100137.31
2022-08-30T15:20:27.634Z,100128.69
2022-08-30T15:23:29.225Z,100119.53
2022-08-30T15:26:31.305Z,100115.72
2022-08-30T15:29:33.125Z,100120.03
2022-08-30T15:32:34.675Z,100117.44
2022-08-30T15:35:36.337Z,100118.13
2022-08-30T15:38:38.846Z,100117.19
2022-08-30T15:41:43.800Z,100111.09
2022-08-30T15:44:46.492Z,100102.31
2022-08-30T15:47:48.408Z,100103.88
2022-08-30T15:50:56.766Z,100098.28
2022-08-30T15:53:58.583Z,100093.38
2022-08-30T15:57:00.314Z,100105.09
2022-08-30T16:00:06.452Z,100098.25
2022-08-30T16:03:10.062Z,100090.63
2022-08-30T16:06:12.689Z,100098.16
2022-08-30T16:09:14.298Z,100095.28
2022-08-30T16:12:22.480Z,100101.03
2022-08-30T16:15:25.689Z,100091.16
2022-08-30T16:18:27.572Z,100092.69
2022-08-30T16:21:30.486Z,100088.72
2022-08-30T16:24:32.319Z,100093.63
2022-08-30T16:27:35.014Z,100092.66
2022-08-30T16:30:36.933Z,100087.00
2022-08-30T16:33:43.053Z,100088.88
2022-08-30T16:36:45.673Z,100088.50
2022-08-30T16:39:47.392Z,100086.94
2022-08-30T16:42:50.223Z,100088.56
2022-08-30T16:45:52.342Z,100083.38
2022-08-30T16:48:56.371Z,100083.84
2022-08-30T16:51:58.010Z,100083.25
2022-08-30T16:55:00.938Z,100097.19
2022-08-30T16:58:04.733Z,100077.50
2022-08-30T17:01:06.353Z,100090.63
2022-08-30T17:04:08.321Z,100090.63
2022-08-30T17:07:13.802Z,100087.00
2022-08-30T17:10:16.673Z,100091.31
2022-08-30T17:13:25.007Z,100089.50
2022-08-30T17:16:28.080Z,100096.53
2022-08-30T17:19:30.373Z,100086.78
2022-08-30T17:22:32.400Z,100090.47
2022-08-30T17:25:34.239Z,100079.25
2022-08-30T17:28:35.862Z,100084.94
2022-08-30T17:31:38.869Z,100088.13
2022-08-30T17:34:40.703Z,100094.22
2022-08-30T17:37:42.622Z,100084.22
2022-08-30T17:40:44.420Z,100086.63
2022-08-30T17:43:46.541Z,100087.00
2022-08-30T17:46:48.392Z,100083.69
2022-08-30T17:49:50.032Z,100087.97
2022-08-30T17:52:52.558Z,100086.91
2022-08-30T17:55:55.118Z,100088.00
2022-08-30T17:58:56.767Z,100096.81
2022-08-30T18:01:59.179Z,100096.28
2022-08-30T18:05:00.905Z,100095.53
2022-08-30T18:08:02.675Z,100099.72
2022-08-30T18:11:05.932Z,100104.59
2022-08-30T18:14:08.095Z,100106.13
2022-08-30T18:17:12.809Z,100104.63
2022-08-30T18:20:14.762Z,100108.25
2022-08-30T18:23:17.750Z,100115.13
2022-08-30T18:26:19.555Z,100126.72
2022-08-30T18:29:30.438Z,100123.56
2022-08-30T18:32:36.213Z,100133.25
2022-08-30T18:35:47.444Z,100131.47
2022-08-30T18:38:50.084Z,100146.22
2022-08-30T18:41:54.400Z,100136.81
2022-08-30T18:44:58.465Z,100142.31
2022-08-30T18:48:14.425Z,100153.25
2022-08-30T18:51:17.481Z,100142.13
2022-08-30T18:54:19.190Z,100152.44
2022-08-30T18:57:22.077Z,100160.88
2022-08-30T19:00:23.729Z,100155.88
2022-08-30T19:03:25.321Z,100161.56
2022-08-30T19:06:26.971Z,100166.97
2022-08-30T19:09:28.610Z,100167.59
2022-08-30T19:12:30.472Z,100182.88
2022-08-30T19:15:34.107Z,100181.00
2022-08-30T19:18:36.994Z,100183.44
2022-08-30T19:21:38.542Z,100186.13
2022-08-30T19:24:40.207Z,100183.97
2022-08-30T19:27:41.950Z,100185.03
2022-08-30T19:30:43.853Z,100185.97
2022-08-30T19:33:45.420Z,100190.34
2022-08-30T19:36:47.753Z,100189.66
2022-08-30T19:39:49.387Z,100186.06
2022-08-30T19:42:51.623Z,100195.84
2022-08-30T19:45:56.439Z,100199.88
2022-08-30T19:48:58.533Z,100211.47
2022-08-30T19:52:00.125Z,100207.66
2022-08-30T19:55:02.979Z,100208.22
2022-08-30T19:58:04.715Z,100207.66
2022-08-30T20:01:10.838Z,100214.09
2022-08-30T20:04:15.769Z,100199.25
2022-08-30T20:07:25.258Z,100208.22
2022-08-30T20:10:29.169Z,100204.75
2022-08-30T20:13:33.615Z,100201.41
2022-08-30T20:16:37.844Z,100204.09
2022-08-30T20:19:39.785Z,100204.22
2022-08-30T20:22:41.347Z,100201.28
2022-08-30T20:25:53.353Z,100202.13
2022-08-30T20:28:54.985Z,100211.78
2022-08-30T20:31:57.008Z,100217.94
2022-08-30T20:34:59.158Z,100213.56
2022-08-30T20:38:06.320Z,100221.00
2022-08-30T20:41:11.704Z,100217.53
2022-08-30T20:44:15.086Z,100214.47
2022-08-30T20:47:17.457Z,100216.81
2022-08-30T20:50:19.247Z,100216.16
2022-08-30T20:53:20.799Z,100210.78
2022-08-30T20:56:22.552Z,100219.25
2022-08-30T20:59:24.188Z,100207.56
2022-08-30T21:02:25.928Z,100216.16
2022-08-30T21:05:27.565Z,100224.00
2022-08-30T21:08:29.245Z,100226.41
2022-08-30T21:11:31.100Z,100223.81
2022-08-30T21:14:32.693Z,100223.38
2022-08-30T21:17:34.301Z,100225.00
2022-08-30T21:20:36.094Z,100227.38
2022-08-30T21:23:37.742Z,100229.53
2022-08-30T21:26:40.437Z,100222.25
2022-08-30T21:29:42.152Z,100226.56
2022-08-30T21:32:43.745Z,100217.50
2022-08-30T21:36:04.053Z,100223.31
2022-08-30T21:39:06.470Z,100225.44
2022-08-30T21:42:09.054Z,100228.34
2022-08-30T21:45:10.762Z,100219.22
2022-08-30T21:48:12.674Z,100224.38
2022-08-30T21:51:14.358Z,100220.34
2022-08-30T21:54:16.537Z,100218.47
2022-08-30T21:57:18.358Z,100213.88
2022-08-30T22:00:21.061Z,100225.88
2022-08-30T22:03:22.675Z,100219.63
2022-08-30T22:06:30.605Z,100223.28
2022-08-30T22:09:33.001Z,100222.72
2022-08-30T22:12:34.913Z,100221.97
2022-08-30T22:15:39.155Z,100224.91
2022-08-30T22:18:41.159Z,100219.25
2022-08-30T22:21:43.805Z,100231.28
2022-08-30T22:24:45.439Z,100231.63
2022-08-30T22:27:47.097Z,100232.41
2022-08-30T22:30:48.982Z,100234.34
2022-08-30T22:33:51.255Z,100231.50
2022-08-30T22:36:52.873Z,100224.44
2022-08-30T22:39:54.773Z,100220.84
2022-08-30T22:42:56.358Z,100221.53
2022-08-30T22:45:58.089Z,100219.25
2022-08-30T22:48:59.802Z,100216.19
2022-08-30T22:52:01.362Z,100227.59
2022-08-30T22:55:04.243Z,100226.81
2022-08-30T22:58:05.879Z,100219.56
2022-08-30T23:01:07.620Z,100230.97
2022-08-30T23:04:09.416Z,100237.78
2022-08-30T23:07:11.021Z,100232.97
2022-08-30T23:10:12.975Z,100232.69
2022-08-30T23:13:14.521Z,100224.69
2022-08-30T23:16:16.324Z,100232.16
2022-08-30T23:19:18.667Z,100230.28
2022-08-30T23:22:20.321Z,100234.00
2022-08-30T23:25:41.659Z,100229.97
2022-08-30T23:29:04.688Z,100231.03
2022-08-30T23:32:24.871Z,100226.72
2022-08-30T23:35:45.198Z,100228.91
2022-08-30T23:39:05.504Z,100225.69
2022-08-30T23:42:25.772Z,100223.22
2022-08-30T23:45:46.053Z,100225.56
2022-08-30T23:49:06.233Z,100229.53
2022-08-30T23:52:26.522Z,100230.50
2022-08-30T23:55:46.538Z,100219.78
2022-08-30T23:59:06.393Z,100224.22
